首页
METAR-TAF:

METAR-TAF

机场 :

錫比烏, 罗马尼亚

纬度: 45-48N, 经度: 024-09E, 海拔: 443米

当前天气观测

该预报发布于26分钟前的17:30 UTC
风速19节,风向南转南东
温度 11°C
湿度 76%
气压 1017 hPa
能见度10公里或以上
散云层高于5000英尺, 积雨云.
散云层高于5300英尺
小阵雨

METAR: LRSB 201730Z 15019KT 9999 -SHRA SCT050CB SCT053 11/07 Q1017 R27/29//95

时间: 19:56 (17:56 UTC)

预报

该预报发布于56分钟前的17:00 UTC
预报有效从20日的 18点(UTC)到 21日的 18点(UTC)
风速16节,风向南转南东
能见度10公里或以上
散云层高于4500英尺
短暂存在
从 20日的 18点(UTC)到 20日的 23点(UTC)
能見度: 3000
多云层高于1000英尺
多云层高于4000英尺
小雨, 轻雾
成为
从 20日的 23点(UTC)到 21日的 01点(UTC)
风速6节,风向东南
几率 30% :
短暂存在
从 21日的 02点(UTC)到 21日的 06点(UTC)
能見度: 3000
轻雾

TAF: LRSB 201700Z 2018/2118 16016KT 9999 SCT045 TEMPO 2018/2023 3000 -RA BR BKN010 BKN040 BECMG 2023/2101 13006KT PROB30 TEMPO 2102/2106 3000 BR

超过4000个机场的气象观测和天气预报(METAR&TAF报告)。

可查询的气象台以黄色和红色小点在地图上表示。

将鼠标移到小点上方,可查看气象台名称。

然后点击查看天气观测和预报。

如需切换地图:点击带黑十字的绿色按钮放大地图;点击带横线的绿色按钮缩小地图;或者点击绿色箭头查看邻近地区的地图。


METAR-TAF: